sensor_id;sensor_type;location;lat;lon;timestamp;P1;durP1;ratioP1;P2;durP2;ratioP2
56043;SDS011;41912;51.022;3.664;2023-10-19T00:01:57;1.05;;;0.65;;
56043;SDS011;41912;51.022;3.664;2023-10-19T00:04:26;4.72;;;0.80;;
56043;SDS011;41912;51.022;3.664;2023-10-19T00:06:57;4.00;;;0.55;;
56043;SDS011;41912;51.022;3.664;2023-10-19T00:09:23;2.58;;;0.55;;
56043;SDS011;41912;51.022;3.664;2023-10-19T00:11:48;3.63;;;0.70;;
56043;SDS011;41912;51.022;3.664;2023-10-19T00:14:16;0.90;;;0.50;;
56043;SDS011;41912;51.022;3.664;2023-10-19T00:16:43;5.13;;;0.57;;
56043;SDS011;41912;51.022;3.664;2023-10-19T00:19:16;3.63;;;0.80;;
56043;SDS011;41912;51.022;3.664;2023-10-19T00:21:44;5.90;;;1.92;;
56043;SDS011;41912;51.022;3.664;2023-10-19T00:24:19;5.25;;;0.70;;
56043;SDS011;41912;51.022;3.664;2023-10-19T00:26:47;7.35;;;0.95;;
56043;SDS011;41912;51.022;3.664;2023-10-19T00:29:20;4.32;;;0.60;;
56043;SDS011;41912;51.022;3.664;2023-10-19T00:32:04;2.90;;;0.90;;
56043;SDS011;41912;51.022;3.664;2023-10-19T00:34:31;5.30;;;0.63;;
56043;SDS011;41912;51.022;3.664;2023-10-19T00:36:58;7.43;;;1.20;;
56043;SDS011;41912;51.022;3.664;2023-10-19T00:39:32;4.78;;;0.90;;
56043;SDS011;41912;51.022;3.664;2023-10-19T00:42:07;3.22;;;0.85;;
56043;SDS011;41912;51.022;3.664;2023-10-19T00:44:33;5.25;;;0.65;;
56043;SDS011;41912;51.022;3.664;2023-10-19T00:47:14;4.45;;;1.25;;
56043;SDS011;41912;51.022;3.664;2023-10-19T00:49:43;2.25;;;0.70;;
56043;SDS011;41912;51.022;3.664;2023-10-19T00:52:12;5.53;;;0.80;;
56043;SDS011;41912;51.022;3.664;2023-10-19T00:54:48;18.67;;;1.63;;
56043;SDS011;41912;51.022;3.664;2023-10-19T00:57:17;2.72;;;0.68;;
56043;SDS011;41912;51.022;3.664;2023-10-19T00:59:57;3.53;;;0.63;;
56043;SDS011;41912;51.022;3.664;2023-10-19T01:02:36;3.78;;;0.70;;
56043;SDS011;41912;51.022;3.664;2023-10-19T01:05:17;1.83;;;0.70;;
56043;SDS011;41912;51.022;3.664;2023-10-19T01:07:46;5.18;;;0.75;;
56043;SDS011;41912;51.022;3.664;2023-10-19T01:10:18;7.00;;;0.80;;
56043;SDS011;41912;51.022;3.664;2023-10-19T01:12:47;3.60;;;0.65;;
56043;SDS011;41912;51.022;3.664;2023-10-19T01:15:13;4.13;;;0.70;;
56043;SDS011;41912;51.022;3.664;2023-10-19T01:17:53;3.75;;;0.63;;
56043;SDS011;41912;51.022;3.664;2023-10-19T01:20:30;5.68;;;0.73;;
56043;SDS011;41912;51.022;3.664;2023-10-19T01:23:01;4.30;;;1.10;;
56043;SDS011;41912;51.022;3.664;2023-10-19T01:28:25;2.72;;;0.85;;
56043;SDS011;41912;51.022;3.664;2023-10-19T01:31:08;4.50;;;0.98;;
56043;SDS011;41912;51.022;3.664;2023-10-19T01:33:40;5.32;;;0.70;;
56043;SDS011;41912;51.022;3.664;2023-10-19T01:36:07;5.72;;;1.08;;
56043;SDS011;41912;51.022;3.664;2023-10-19T01:38:36;8.73;;;1.00;;
56043;SDS011;41912;51.022;3.664;2023-10-19T01:41:07;5.93;;;1.10;;
56043;SDS011;41912;51.022;3.664;2023-10-19T01:43:43;10.00;;;1.45;;
56043;SDS011;41912;51.022;3.664;2023-10-19T01:46:10;4.50;;;0.88;;
56043;SDS011;41912;51.022;3.664;2023-10-19T01:48:43;3.50;;;0.77;;
56043;SDS011;41912;51.022;3.664;2023-10-19T01:51:10;2.80;;;0.70;;
56043;SDS011;41912;51.022;3.664;2023-10-19T01:53:38;6.38;;;0.80;;
56043;SDS011;41912;51.022;3.664;2023-10-19T01:56:10;3.55;;;1.20;;
56043;SDS011;41912;51.022;3.664;2023-10-19T01:58:37;8.73;;;0.65;;
56043;SDS011;41912;51.022;3.664;2023-10-19T02:01:04;5.95;;;1.42;;
56043;SDS011;41912;51.022;3.664;2023-10-19T02:03:40;1.55;;;0.60;;
56043;SDS011;41912;51.022;3.664;2023-10-19T02:06:09;3.42;;;0.50;;
56043;SDS011;41912;51.022;3.664;2023-10-19T02:08:42;4.20;;;0.70;;
56043;SDS011;41912;51.022;3.664;2023-10-19T02:11:19;2.15;;;0.70;;
56043;SDS011;41912;51.022;3.664;2023-10-19T02:13:49;5.00;;;0.82;;
56043;SDS011;41912;51.022;3.664;2023-10-19T02:16:17;7.55;;;1.48;;
56043;SDS011;41912;51.022;3.664;2023-10-19T02:18:47;6.15;;;0.80;;
56043;SDS011;41912;51.022;3.664;2023-10-19T02:21:14;3.13;;;0.75;;
56043;SDS011;41912;51.022;3.664;2023-10-19T02:23:46;10.43;;;1.27;;
56043;SDS011;41912;51.022;3.664;2023-10-19T02:26:15;4.60;;;0.80;;
56043;SDS011;41912;51.022;3.664;2023-10-19T02:28:41;4.72;;;0.80;;
56043;SDS011;41912;51.022;3.664;2023-10-19T02:31:09;8.82;;;2.13;;
56043;SDS011;41912;51.022;3.664;2023-10-19T02:33:42;3.92;;;1.02;;
56043;SDS011;41912;51.022;3.664;2023-10-19T02:36:37;3.63;;;0.80;;
56043;SDS011;41912;51.022;3.664;2023-10-19T02:39:05;4.90;;;0.68;;
56043;SDS011;41912;51.022;3.664;2023-10-19T02:41:32;5.28;;;1.27;;
56043;SDS011;41912;51.022;3.664;2023-10-19T02:44:08;3.60;;;0.60;;
56043;SDS011;41912;51.022;3.664;2023-10-19T02:46:51;4.90;;;0.77;;
56043;SDS011;41912;51.022;3.664;2023-10-19T02:49:23;5.72;;;1.50;;
56043;SDS011;41912;51.022;3.664;2023-10-19T02:51:50;5.55;;;0.82;;
56043;SDS011;41912;51.022;3.664;2023-10-19T02:54:18;5.05;;;0.77;;
56043;SDS011;41912;51.022;3.664;2023-10-19T02:56:50;8.38;;;1.00;;
56043;SDS011;41912;51.022;3.664;2023-10-19T02:59:21;10.52;;;1.90;;
56043;SDS011;41912;51.022;3.664;2023-10-19T03:01:48;7.40;;;1.30;;
56043;SDS011;41912;51.022;3.664;2023-10-19T03:04:18;7.55;;;1.55;;
56043;SDS011;41912;51.022;3.664;2023-10-19T03:06:44;9.55;;;1.20;;
56043;SDS011;41912;51.022;3.664;2023-10-19T03:09:09;6.97;;;0.98;;
56043;SDS011;41912;51.022;3.664;2023-10-19T03:11:42;11.57;;;1.08;;
56043;SDS011;41912;51.022;3.664;2023-10-19T03:14:09;9.30;;;2.13;;
56043;SDS011;41912;51.022;3.664;2023-10-19T03:16:37;5.65;;;1.00;;
56043;SDS011;41912;51.022;3.664;2023-10-19T03:19:06;6.88;;;1.20;;
56043;SDS011;41912;51.022;3.664;2023-10-19T03:21:32;4.85;;;0.98;;
56043;SDS011;41912;51.022;3.664;2023-10-19T03:24:07;7.88;;;1.05;;
56043;SDS011;41912;51.022;3.664;2023-10-19T03:26:37;4.88;;;0.93;;
56043;SDS011;41912;51.022;3.664;2023-10-19T03:29:05;4.05;;;1.05;;
56043;SDS011;41912;51.022;3.664;2023-10-19T03:31:37;8.80;;;1.52;;
56043;SDS011;41912;51.022;3.664;2023-10-19T03:34:10;7.15;;;1.05;;
56043;SDS011;41912;51.022;3.664;2023-10-19T03:36:38;6.82;;;1.35;;
56043;SDS011;41912;51.022;3.664;2023-10-19T03:39:04;8.27;;;1.13;;
56043;SDS011;41912;51.022;3.664;2023-10-19T03:41:39;4.38;;;1.00;;
56043;SDS011;41912;51.022;3.664;2023-10-19T03:44:09;9.63;;;1.20;;
56043;SDS011;41912;51.022;3.664;2023-10-19T03:46:58;4.28;;;1.52;;
56043;SDS011;41912;51.022;3.664;2023-10-19T03:49:29;5.85;;;1.50;;
56043;SDS011;41912;51.022;3.664;2023-10-19T03:52:03;6.97;;;1.40;;
56043;SDS011;41912;51.022;3.664;2023-10-19T03:54:36;13.30;;;1.67;;
56043;SDS011;41912;51.022;3.664;2023-10-19T03:57:06;6.03;;;1.13;;
56043;SDS011;41912;51.022;3.664;2023-10-19T03:59:45;11.88;;;1.83;;
56043;SDS011;41912;51.022;3.664;2023-10-19T04:02:15;3.67;;;0.90;;
56043;SDS011;41912;51.022;3.664;2023-10-19T04:04:46;12.07;;;3.73;;
56043;SDS011;41912;51.022;3.664;2023-10-19T04:07:13;8.85;;;0.90;;
56043;SDS011;41912;51.022;3.664;2023-10-19T04:09:52;11.27;;;1.55;;
56043;SDS011;41912;51.022;3.664;2023-10-19T04:12:34;4.22;;;0.98;;
56043;SDS011;41912;51.022;3.664;2023-10-19T04:15:02;8.13;;;1.85;;
56043;SDS011;41912;51.022;3.664;2023-10-19T04:17:35;6.10;;;1.17;;
56043;SDS011;41912;51.022;3.664;2023-10-19T04:20:02;12.75;;;1.80;;
56043;SDS011;41912;51.022;3.664;2023-10-19T04:22:40;7.45;;;1.60;;
56043;SDS011;41912;51.022;3.664;2023-10-19T04:25:05;8.25;;;1.10;;
56043;SDS011;41912;51.022;3.664;2023-10-19T04:27:31;8.23;;;1.27;;
56043;SDS011;41912;51.022;3.664;2023-10-19T04:30:00;7.60;;;1.15;;
56043;SDS011;41912;51.022;3.664;2023-10-19T04:32:27;4.10;;;1.17;;
56043;SDS011;41912;51.022;3.664;2023-10-19T04:34:53;6.95;;;1.23;;
56043;SDS011;41912;51.022;3.664;2023-10-19T04:37:18;5.70;;;0.95;;
56043;SDS011;41912;51.022;3.664;2023-10-19T04:39:45;5.47;;;1.25;;
56043;SDS011;41912;51.022;3.664;2023-10-19T04:42:11;17.55;;;2.47;;
56043;SDS011;41912;51.022;3.664;2023-10-19T04:44:37;9.98;;;1.88;;
56043;SDS011;41912;51.022;3.664;2023-10-19T04:47:02;11.15;;;1.50;;
56043;SDS011;41912;51.022;3.664;2023-10-19T04:49:28;7.00;;;1.40;;
56043;SDS011;41912;51.022;3.664;2023-10-19T04:51:54;9.80;;;1.52;;
56043;SDS011;41912;51.022;3.664;2023-10-19T04:54:19;8.63;;;1.50;;
56043;SDS011;41912;51.022;3.664;2023-10-19T04:56:45;11.55;;;1.60;;
56043;SDS011;41912;51.022;3.664;2023-10-19T04:59:11;12.98;;;1.80;;
56043;SDS011;41912;51.022;3.664;2023-10-19T05:01:36;10.32;;;1.50;;
56043;SDS011;41912;51.022;3.664;2023-10-19T05:04:02;14.00;;;1.80;;
56043;SDS011;41912;51.022;3.664;2023-10-19T05:06:28;7.32;;;1.58;;
56043;SDS011;41912;51.022;3.664;2023-10-19T05:08:54;8.27;;;1.48;;
56043;SDS011;41912;51.022;3.664;2023-10-19T05:11:19;6.43;;;1.30;;
56043;SDS011;41912;51.022;3.664;2023-10-19T05:13:45;8.32;;;1.40;;
56043;SDS011;41912;51.022;3.664;2023-10-19T05:16:11;11.55;;;4.15;;
56043;SDS011;41912;51.022;3.664;2023-10-19T05:18:37;7.45;;;1.77;;
56043;SDS011;41912;51.022;3.664;2023-10-19T05:21:03;9.15;;;2.70;;
56043;SDS011;41912;51.022;3.664;2023-10-19T05:23:30;10.82;;;1.85;;
56043;SDS011;41912;51.022;3.664;2023-10-19T05:26:02;11.60;;;1.95;;
56043;SDS011;41912;51.022;3.664;2023-10-19T05:28:29;10.70;;;1.90;;
56043;SDS011;41912;51.022;3.664;2023-10-19T05:30:55;8.57;;;1.80;;
56043;SDS011;41912;51.022;3.664;2023-10-19T05:33:22;7.82;;;2.17;;
56043;SDS011;41912;51.022;3.664;2023-10-19T05:35:48;12.48;;;2.65;;
56043;SDS011;41912;51.022;3.664;2023-10-19T05:38:15;9.23;;;1.48;;
56043;SDS011;41912;51.022;3.664;2023-10-19T05:40:41;12.40;;;2.00;;
56043;SDS011;41912;51.022;3.664;2023-10-19T05:43:10;9.93;;;1.55;;
56043;SDS011;41912;51.022;3.664;2023-10-19T05:45:37;8.43;;;1.60;;
56043;SDS011;41912;51.022;3.664;2023-10-19T05:48:03;9.98;;;2.15;;
56043;SDS011;41912;51.022;3.664;2023-10-19T05:50:31;9.48;;;1.33;;
56043;SDS011;41912;51.022;3.664;2023-10-19T05:52:57;7.20;;;1.23;;
56043;SDS011;41912;51.022;3.664;2023-10-19T05:55:23;8.57;;;1.38;;
56043;SDS011;41912;51.022;3.664;2023-10-19T05:57:49;11.18;;;1.60;;
56043;SDS011;41912;51.022;3.664;2023-10-19T06:00:14;18.30;;;1.90;;
56043;SDS011;41912;51.022;3.664;2023-10-19T06:02:44;13.77;;;2.10;;
56043;SDS011;41912;51.022;3.664;2023-10-19T06:05:12;13.15;;;1.67;;
56043;SDS011;41912;51.022;3.664;2023-10-19T06:07:40;13.13;;;2.63;;
56043;SDS011;41912;51.022;3.664;2023-10-19T06:10:07;8.88;;;1.67;;
56043;SDS011;41912;51.022;3.664;2023-10-19T06:12:33;10.23;;;1.92;;
56043;SDS011;41912;51.022;3.664;2023-10-19T06:14:59;8.85;;;1.42;;
56043;SDS011;41912;51.022;3.664;2023-10-19T06:17:28;9.73;;;2.60;;
56043;SDS011;41912;51.022;3.664;2023-10-19T06:19:54;6.70;;;1.50;;
56043;SDS011;41912;51.022;3.664;2023-10-19T06:22:20;17.45;;;1.75;;
56043;SDS011;41912;51.022;3.664;2023-10-19T06:24:46;16.30;;;2.60;;
56043;SDS011;41912;51.022;3.664;2023-10-19T06:27:12;7.97;;;2.20;;
56043;SDS011;41912;51.022;3.664;2023-10-19T06:29:37;10.73;;;2.45;;
56043;SDS011;41912;51.022;3.664;2023-10-19T06:32:03;15.98;;;1.55;;
56043;SDS011;41912;51.022;3.664;2023-10-19T06:34:29;11.10;;;1.80;;
56043;SDS011;41912;51.022;3.664;2023-10-19T06:36:55;13.38;;;1.83;;
56043;SDS011;41912;51.022;3.664;2023-10-19T06:39:20;15.13;;;2.17;;
56043;SDS011;41912;51.022;3.664;2023-10-19T06:41:47;11.95;;;2.05;;
56043;SDS011;41912;51.022;3.664;2023-10-19T06:44:13;10.65;;;1.52;;
56043;SDS011;41912;51.022;3.664;2023-10-19T06:46:38;15.10;;;2.60;;
56043;SDS011;41912;51.022;3.664;2023-10-19T06:49:04;10.18;;;1.73;;
56043;SDS011;41912;51.022;3.664;2023-10-19T06:51:30;12.73;;;1.65;;
56043;SDS011;41912;51.022;3.664;2023-10-19T06:53:58;12.52;;;2.00;;
56043;SDS011;41912;51.022;3.664;2023-10-19T06:56:24;15.20;;;2.67;;
56043;SDS011;41912;51.022;3.664;2023-10-19T06:58:50;11.80;;;1.80;;
56043;SDS011;41912;51.022;3.664;2023-10-19T07:01:15;13.23;;;2.20;;
56043;SDS011;41912;51.022;3.664;2023-10-19T07:03:42;9.27;;;1.52;;
56043;SDS011;41912;51.022;3.664;2023-10-19T07:06:09;8.57;;;1.75;;
56043;SDS011;41912;51.022;3.664;2023-10-19T07:08:38;16.75;;;2.45;;
56043;SDS011;41912;51.022;3.664;2023-10-19T07:11:06;9.77;;;2.03;;
56043;SDS011;41912;51.022;3.664;2023-10-19T07:13:32;8.77;;;1.85;;
56043;SDS011;41912;51.022;3.664;2023-10-19T07:15:58;12.35;;;2.40;;
56043;SDS011;41912;51.022;3.664;2023-10-19T07:18:24;13.60;;;2.95;;
56043;SDS011;41912;51.022;3.664;2023-10-19T07:20:50;11.23;;;1.75;;
56043;SDS011;41912;51.022;3.664;2023-10-19T07:23:17;17.38;;;2.42;;
56043;SDS011;41912;51.022;3.664;2023-10-19T07:25:47;13.95;;;1.90;;
56043;SDS011;41912;51.022;3.664;2023-10-19T07:28:18;9.75;;;1.75;;
56043;SDS011;41912;51.022;3.664;2023-10-19T07:30:44;11.68;;;2.38;;
56043;SDS011;41912;51.022;3.664;2023-10-19T07:33:11;7.47;;;2.35;;
56043;SDS011;41912;51.022;3.664;2023-10-19T07:35:45;14.50;;;1.92;;
56043;SDS011;41912;51.022;3.664;2023-10-19T07:38:15;11.73;;;2.30;;
56043;SDS011;41912;51.022;3.664;2023-10-19T07:40:42;12.27;;;1.80;;
56043;SDS011;41912;51.022;3.664;2023-10-19T07:43:08;14.13;;;1.67;;
56043;SDS011;41912;51.022;3.664;2023-10-19T07:45:34;12.65;;;1.92;;
56043;SDS011;41912;51.022;3.664;2023-10-19T07:48:01;9.65;;;2.20;;
56043;SDS011;41912;51.022;3.664;2023-10-19T07:50:37;8.52;;;1.73;;
56043;SDS011;41912;51.022;3.664;2023-10-19T07:53:05;9.02;;;1.75;;
56043;SDS011;41912;51.022;3.664;2023-10-19T07:55:31;15.43;;;2.90;;
56043;SDS011;41912;51.022;3.664;2023-10-19T07:57:58;15.50;;;2.40;;
56043;SDS011;41912;51.022;3.664;2023-10-19T08:00:28;13.07;;;2.00;;
56043;SDS011;41912;51.022;3.664;2023-10-19T08:05:26;10.80;;;2.15;;
56043;SDS011;41912;51.022;3.664;2023-10-19T08:07:52;7.10;;;1.55;;
56043;SDS011;41912;51.022;3.664;2023-10-19T08:10:19;12.75;;;2.60;;
56043;SDS011;41912;51.022;3.664;2023-10-19T08:12:46;16.10;;;2.08;;
56043;SDS011;41912;51.022;3.664;2023-10-19T08:15:13;13.32;;;1.92;;
56043;SDS011;41912;51.022;3.664;2023-10-19T08:17:43;16.17;;;3.28;;
56043;SDS011;41912;51.022;3.664;2023-10-19T08:20:10;19.88;;;2.05;;
56043;SDS011;41912;51.022;3.664;2023-10-19T08:22:53;15.85;;;2.22;;
56043;SDS011;41912;51.022;3.664;2023-10-19T08:25:22;12.70;;;2.65;;
56043;SDS011;41912;51.022;3.664;2023-10-19T08:27:47;10.30;;;1.95;;
56043;SDS011;41912;51.022;3.664;2023-10-19T08:30:15;18.88;;;3.03;;
56043;SDS011;41912;51.022;3.664;2023-10-19T08:32:46;7.07;;;1.90;;
56043;SDS011;41912;51.022;3.664;2023-10-19T08:35:15;16.77;;;2.22;;
56043;SDS011;41912;51.022;3.664;2023-10-19T08:37:49;13.80;;;2.00;;
56043;SDS011;41912;51.022;3.664;2023-10-19T08:40:15;14.32;;;2.20;;
56043;SDS011;41912;51.022;3.664;2023-10-19T08:42:42;13.63;;;2.40;;
56043;SDS011;41912;51.022;3.664;2023-10-19T08:45:10;10.48;;;1.83;;
56043;SDS011;41912;51.022;3.664;2023-10-19T08:47:40;14.20;;;2.00;;
56043;SDS011;41912;51.022;3.664;2023-10-19T08:50:13;14.50;;;2.13;;
56043;SDS011;41912;51.022;3.664;2023-10-19T08:52:40;18.77;;;2.55;;
56043;SDS011;41912;51.022;3.664;2023-10-19T08:55:08;12.00;;;1.85;;
56043;SDS011;41912;51.022;3.664;2023-10-19T08:57:36;16.98;;;2.25;;
56043;SDS011;41912;51.022;3.664;2023-10-19T09:00:03;10.55;;;2.10;;
56043;SDS011;41912;51.022;3.664;2023-10-19T09:02:31;8.45;;;1.58;;
56043;SDS011;41912;51.022;3.664;2023-10-19T09:04:58;16.45;;;3.75;;
56043;SDS011;41912;51.022;3.664;2023-10-19T09:07:25;13.50;;;2.05;;
56043;SDS011;41912;51.022;3.664;2023-10-19T09:09:55;13.68;;;1.70;;
56043;SDS011;41912;51.022;3.664;2023-10-19T09:12:23;16.27;;;2.00;;
56043;SDS011;41912;51.022;3.664;2023-10-19T09:14:49;11.68;;;1.95;;
56043;SDS011;41912;51.022;3.664;2023-10-19T09:17:15;12.77;;;2.33;;
56043;SDS011;41912;51.022;3.664;2023-10-19T09:19:44;9.60;;;1.83;;
56043;SDS011;41912;51.022;3.664;2023-10-19T09:22:13;19.60;;;3.40;;
56043;SDS011;41912;51.022;3.664;2023-10-19T09:24:48;16.85;;;2.33;;
56043;SDS011;41912;51.022;3.664;2023-10-19T09:27:17;13.13;;;2.40;;
56043;SDS011;41912;51.022;3.664;2023-10-19T09:29:44;12.18;;;1.90;;
56043;SDS011;41912;51.022;3.664;2023-10-19T09:32:10;13.95;;;3.03;;
56043;SDS011;41912;51.022;3.664;2023-10-19T09:34:38;19.92;;;2.97;;
56043;SDS011;41912;51.022;3.664;2023-10-19T09:37:08;12.48;;;2.40;;
56043;SDS011;41912;51.022;3.664;2023-10-19T09:39:34;11.98;;;2.03;;
56043;SDS011;41912;51.022;3.664;2023-10-19T09:42:01;20.73;;;2.63;;
56043;SDS011;41912;51.022;3.664;2023-10-19T09:44:30;19.27;;;2.25;;
56043;SDS011;41912;51.022;3.664;2023-10-19T09:47:04;11.07;;;1.95;;
56043;SDS011;41912;51.022;3.664;2023-10-19T09:49:39;20.10;;;2.85;;
56043;SDS011;41912;51.022;3.664;2023-10-19T09:52:07;14.75;;;3.13;;
56043;SDS011;41912;51.022;3.664;2023-10-19T09:54:38;15.52;;;2.30;;
56043;SDS011;41912;51.022;3.664;2023-10-19T09:57:13;9.10;;;1.85;;
56043;SDS011;41912;51.022;3.664;2023-10-19T09:59:44;15.60;;;2.35;;
56043;SDS011;41912;51.022;3.664;2023-10-19T10:02:12;11.40;;;2.17;;
56043;SDS011;41912;51.022;3.664;2023-10-19T10:04:40;24.10;;;3.08;;
56043;SDS011;41912;51.022;3.664;2023-10-19T10:07:06;11.02;;;2.50;;
56043;SDS011;41912;51.022;3.664;2023-10-19T10:12:24;14.27;;;2.28;;
56043;SDS011;41912;51.022;3.664;2023-10-19T10:15:04;16.23;;;3.05;;
56043;SDS011;41912;51.022;3.664;2023-10-19T10:17:34;17.10;;;3.00;;
56043;SDS011;41912;51.022;3.664;2023-10-19T10:22:38;8.52;;;1.85;;
56043;SDS011;41912;51.022;3.664;2023-10-19T10:25:06;12.25;;;2.22;;
56043;SDS011;41912;51.022;3.664;2023-10-19T10:27:32;14.95;;;3.03;;
56043;SDS011;41912;51.022;3.664;2023-10-19T10:30:01;13.18;;;2.30;;
56043;SDS011;41912;51.022;3.664;2023-10-19T10:38:05;13.85;;;2.38;;
56043;SDS011;41912;51.022;3.664;2023-10-19T10:40:47;16.55;;;2.70;;
56043;SDS011;41912;51.022;3.664;2023-10-19T10:43:14;15.95;;;2.15;;
56043;SDS011;41912;51.022;3.664;2023-10-19T10:45:41;11.07;;;2.92;;
56043;SDS011;41912;51.022;3.664;2023-10-19T10:48:11;15.13;;;2.60;;
56043;SDS011;41912;51.022;3.664;2023-10-19T10:50:40;16.30;;;2.92;;
56043;SDS011;41912;51.022;3.664;2023-10-19T10:53:07;16.17;;;2.78;;
56043;SDS011;41912;51.022;3.664;2023-10-19T10:55:36;11.52;;;1.95;;
56043;SDS011;41912;51.022;3.664;2023-10-19T10:58:02;16.48;;;2.28;;
56043;SDS011;41912;51.022;3.664;2023-10-19T11:00:28;12.50;;;2.72;;
56043;SDS011;41912;51.022;3.664;2023-10-19T11:03:01;15.27;;;3.10;;
56043;SDS011;41912;51.022;3.664;2023-10-19T11:05:38;20.40;;;3.38;;
56043;SDS011;41912;51.022;3.664;2023-10-19T11:10:44;14.25;;;3.20;;
56043;SDS011;41912;51.022;3.664;2023-10-19T11:13:14;16.88;;;2.65;;
56043;SDS011;41912;51.022;3.664;2023-10-19T11:15:50;14.20;;;2.70;;
56043;SDS011;41912;51.022;3.664;2023-10-19T11:21:17;15.40;;;3.08;;
56043;SDS011;41912;51.022;3.664;2023-10-19T11:23:46;9.70;;;2.70;;
56043;SDS011;41912;51.022;3.664;2023-10-19T11:26:14;15.07;;;3.60;;
56043;SDS011;41912;51.022;3.664;2023-10-19T11:28:41;12.57;;;3.30;;
56043;SDS011;41912;51.022;3.664;2023-10-19T11:31:17;18.67;;;4.25;;
56043;SDS011;41912;51.022;3.664;2023-10-19T11:33:45;16.65;;;4.53;;
56043;SDS011;41912;51.022;3.664;2023-10-19T11:36:13;20.02;;;3.40;;
56043;SDS011;41912;51.022;3.664;2023-10-19T11:38:43;17.75;;;3.88;;
56043;SDS011;41912;51.022;3.664;2023-10-19T11:41:10;14.07;;;4.20;;
56043;SDS011;41912;51.022;3.664;2023-10-19T11:43:37;13.57;;;3.70;;
56043;SDS011;41912;51.022;3.664;2023-10-19T11:46:04;16.63;;;3.58;;
56043;SDS011;41912;51.022;3.664;2023-10-19T11:48:30;16.48;;;4.60;;
56043;SDS011;41912;51.022;3.664;2023-10-19T11:51:01;17.88;;;3.50;;
56043;SDS011;41912;51.022;3.664;2023-10-19T11:53:31;11.93;;;4.28;;
56043;SDS011;41912;51.022;3.664;2023-10-19T11:56:05;15.38;;;3.80;;
56043;SDS011;41912;51.022;3.664;2023-10-19T11:58:32;9.25;;;2.72;;
56043;SDS011;41912;51.022;3.664;2023-10-19T12:00:59;14.43;;;2.72;;
56043;SDS011;41912;51.022;3.664;2023-10-19T12:03:26;15.23;;;3.20;;
56043;SDS011;41912;51.022;3.664;2023-10-19T12:05:53;12.63;;;2.90;;
56043;SDS011;41912;51.022;3.664;2023-10-19T12:08:19;17.35;;;2.65;;
56043;SDS011;41912;51.022;3.664;2023-10-19T12:10:44;14.70;;;2.60;;
56043;SDS011;41912;51.022;3.664;2023-10-19T12:13:10;9.98;;;2.15;;
56043;SDS011;41912;51.022;3.664;2023-10-19T12:15:36;13.85;;;2.30;;
56043;SDS011;41912;51.022;3.664;2023-10-19T12:18:02;8.00;;;2.20;;
56043;SDS011;41912;51.022;3.664;2023-10-19T12:20:28;11.30;;;1.75;;
56043;SDS011;41912;51.022;3.664;2023-10-19T12:22:57;6.03;;;1.63;;
56043;SDS011;41912;51.022;3.664;2023-10-19T12:25:24;4.95;;;1.40;;
56043;SDS011;41912;51.022;3.664;2023-10-19T12:27:57;7.70;;;1.60;;
56043;SDS011;41912;51.022;3.664;2023-10-19T12:30:23;7.47;;;1.55;;
56043;SDS011;41912;51.022;3.664;2023-10-19T12:32:51;4.70;;;1.65;;
56043;SDS011;41912;51.022;3.664;2023-10-19T12:35:17;7.88;;;1.45;;
56043;SDS011;41912;51.022;3.664;2023-10-19T12:37:55;2.92;;;1.42;;
56043;SDS011;41912;51.022;3.664;2023-10-19T12:40:20;6.88;;;1.60;;
56043;SDS011;41912;51.022;3.664;2023-10-19T12:42:54;4.05;;;1.25;;
56043;SDS011;41912;51.022;3.664;2023-10-19T12:45:24;8.73;;;1.58;;
56043;SDS011;41912;51.022;3.664;2023-10-19T12:47:50;8.48;;;1.58;;
56043;SDS011;41912;51.022;3.664;2023-10-19T12:50:20;6.45;;;1.38;;
56043;SDS011;41912;51.022;3.664;2023-10-19T12:52:50;7.07;;;1.70;;
56043;SDS011;41912;51.022;3.664;2023-10-19T12:55:18;3.58;;;1.23;;
56043;SDS011;41912;51.022;3.664;2023-10-19T12:57:44;9.27;;;1.58;;
56043;SDS011;41912;51.022;3.664;2023-10-19T13:00:10;7.55;;;1.60;;
56043;SDS011;41912;51.022;3.664;2023-10-19T13:02:49;4.82;;;1.30;;
56043;SDS011;41912;51.022;3.664;2023-10-19T13:05:15;3.40;;;1.10;;
56043;SDS011;41912;51.022;3.664;2023-10-19T13:07:44;6.13;;;1.23;;
56043;SDS011;41912;51.022;3.664;2023-10-19T13:10:09;6.07;;;1.30;;
56043;SDS011;41912;51.022;3.664;2023-10-19T13:12:36;2.05;;;0.93;;
56043;SDS011;41912;51.022;3.664;2023-10-19T13:15:03;3.80;;;1.08;;
56043;SDS011;41912;51.022;3.664;2023-10-19T13:17:36;4.82;;;1.00;;
56043;SDS011;41912;51.022;3.664;2023-10-19T13:20:02;2.92;;;1.00;;
56043;SDS011;41912;51.022;3.664;2023-10-19T13:22:41;6.32;;;1.23;;
56043;SDS011;41912;51.022;3.664;2023-10-19T13:25:09;4.85;;;1.50;;
56043;SDS011;41912;51.022;3.664;2023-10-19T13:27:38;3.15;;;1.17;;
56043;SDS011;41912;51.022;3.664;2023-10-19T13:30:06;8.05;;;1.17;;
56043;SDS011;41912;51.022;3.664;2023-10-19T13:32:35;4.85;;;0.90;;
56043;SDS011;41912;51.022;3.664;2023-10-19T13:35:01;5.35;;;1.00;;
56043;SDS011;41912;51.022;3.664;2023-10-19T13:37:27;6.28;;;1.10;;
56043;SDS011;41912;51.022;3.664;2023-10-19T13:39:53;3.55;;;1.10;;
56043;SDS011;41912;51.022;3.664;2023-10-19T13:42:19;6.25;;;1.33;;
56043;SDS011;41912;51.022;3.664;2023-10-19T13:44:46;5.45;;;1.10;;
56043;SDS011;41912;51.022;3.664;2023-10-19T13:47:12;9.85;;;2.47;;
56043;SDS011;41912;51.022;3.664;2023-10-19T13:49:38;3.60;;;0.90;;
56043;SDS011;41912;51.022;3.664;2023-10-19T13:52:03;6.25;;;1.25;;
56043;SDS011;41912;51.022;3.664;2023-10-19T13:54:29;5.13;;;1.80;;
56043;SDS011;41912;51.022;3.664;2023-10-19T13:56:55;10.65;;;1.40;;
56043;SDS011;41912;51.022;3.664;2023-10-19T13:59:21;8.65;;;1.40;;
56043;SDS011;41912;51.022;3.664;2023-10-19T14:01:48;5.40;;;1.10;;
56043;SDS011;41912;51.022;3.664;2023-10-19T14:04:15;2.50;;;0.88;;
56043;SDS011;41912;51.022;3.664;2023-10-19T14:06:41;3.70;;;1.20;;
56043;SDS011;41912;51.022;3.664;2023-10-19T14:09:08;3.38;;;1.00;;
56043;SDS011;41912;51.022;3.664;2023-10-19T14:11:37;6.05;;;1.40;;
56043;SDS011;41912;51.022;3.664;2023-10-19T14:14:03;3.45;;;1.10;;
56043;SDS011;41912;51.022;3.664;2023-10-19T14:16:29;3.38;;;1.05;;
56043;SDS011;41912;51.022;3.664;2023-10-19T14:18:56;3.17;;;0.95;;
56043;SDS011;41912;51.022;3.664;2023-10-19T14:21:22;3.50;;;1.05;;
56043;SDS011;41912;51.022;3.664;2023-10-19T14:23:51;3.55;;;1.00;;
56043;SDS011;41912;51.022;3.664;2023-10-19T14:26:18;3.97;;;1.42;;
56043;SDS011;41912;51.022;3.664;2023-10-19T14:28:44;4.93;;;1.30;;
56043;SDS011;41912;51.022;3.664;2023-10-19T14:31:10;3.88;;;1.10;;
56043;SDS011;41912;51.022;3.664;2023-10-19T14:33:38;3.45;;;1.10;;
56043;SDS011;41912;51.022;3.664;2023-10-19T14:36:04;4.22;;;1.35;;
56043;SDS011;41912;51.022;3.664;2023-10-19T14:38:30;4.80;;;1.10;;
56043;SDS011;41912;51.022;3.664;2023-10-19T14:40:56;4.10;;;1.27;;
56043;SDS011;41912;51.022;3.664;2023-10-19T14:43:23;2.95;;;1.20;;
56043;SDS011;41912;51.022;3.664;2023-10-19T14:45:50;2.80;;;1.10;;
56043;SDS011;41912;51.022;3.664;2023-10-19T14:48:16;3.17;;;1.23;;
56043;SDS011;41912;51.022;3.664;2023-10-19T14:50:44;4.53;;;1.10;;
56043;SDS011;41912;51.022;3.664;2023-10-19T14:53:10;4.72;;;1.00;;
56043;SDS011;41912;51.022;3.664;2023-10-19T14:55:36;3.65;;;1.17;;
56043;SDS011;41912;51.022;3.664;2023-10-19T14:58:02;9.52;;;1.40;;
56043;SDS011;41912;51.022;3.664;2023-10-19T15:00:31;3.25;;;1.10;;
56043;SDS011;41912;51.022;3.664;2023-10-19T15:03:02;3.92;;;1.20;;
56043;SDS011;41912;51.022;3.664;2023-10-19T15:05:32;2.40;;;1.13;;
56043;SDS011;41912;51.022;3.664;2023-10-19T15:08:01;3.05;;;1.35;;
56043;SDS011;41912;51.022;3.664;2023-10-19T15:10:29;4.53;;;2.00;;
56043;SDS011;41912;51.022;3.664;2023-10-19T15:12:56;6.63;;;1.25;;
56043;SDS011;41912;51.022;3.664;2023-10-19T15:15:24;6.75;;;2.15;;